Time;durP1;ratioP1;P1;durP2;ratioP2;P2;SDS_P1;SDS_P2;PMS_P1;PMS_P2;Temp;Humidity;BMP_temperature;BMP_pressure;BME280_temperature;BME280_humidity;BME280_pressure;Samples;Min_cycle;Max_cycle;Signal;HPM_P1;HPM_P2
2021/05/30 00:00:42;;;;;;;16.13;5.03;;;12.90;71.40;;;;;;5074818;28;20051;-73
2021/05/30 00:03:08;;;;;;;23.77;6.00;;;12.90;72.10;;;;;;5092830;28;20044;-73
2021/05/30 00:05:36;;;;;;;13.95;5.30;;;12.90;72.10;;;;;;5074702;28;20110;-72
2021/05/30 00:08:02;;;;;;;44.80;5.20;;;13.00;72.00;;;;;;5074413;28;20040;-73
2021/05/30 00:10:29;;;;;;;;;;;12.90;71.70;;;;;;5074987;28;20063;-73
2021/05/30 00:12:56;;;;;;;7.65;3.20;;;12.90;71.30;;;;;;5093298;28;20326;-72
2021/05/30 00:15:22;;;;;;;7.75;3.35;;;12.90;71.30;;;;;;5092710;28;20044;-73
2021/05/30 00:17:48;;;;;;;10.77;2.72;;;12.80;71.30;;;;;;5074716;28;20044;-72
2021/05/30 00:20:15;;;;;;;;;;;12.80;70.70;;;;;;5075119;28;20046;-72
2021/05/30 00:22:41;;;;;;;13.35;5.22;;;12.70;71.00;;;;;;5070612;28;19927;-72
2021/05/30 00:25:09;;;;;;;10.75;4.10;;;12.70;71.40;;;;;;5090500;28;20032;-72
2021/05/30 00:27:36;;;;;;;7.28;4.07;;;12.60;71.50;;;;;;5055591;28;20492;-73
2021/05/30 00:30:07;;;;;;;6.55;3.28;;;12.60;71.70;;;;;;5073626;28;20473;-72
2021/05/30 00:32:33;;;;;;;13.90;3.88;;;12.50;71.80;;;;;;5057299;28;20051;-73
2021/05/30 00:34:59;;;;;;;6.13;2.90;;;12.50;71.60;;;;;;5073920;28;20058;-72
2021/05/30 00:37:25;;;;;;;6.15;3.03;;;12.50;71.80;;;;;;5091833;28;20095;-72
2021/05/30 00:39:51;;;;;;;6.88;3.10;;;12.50;71.80;;;;;;5092008;28;20428;-73
2021/05/30 00:42:19;;;;;;;7.82;3.47;;;12.40;71.80;;;;;;5092515;28;20028;-72
2021/05/30 00:44:45;;;;;;;6.07;2.70;;;12.40;71.90;;;;;;5091046;28;20036;-73
2021/05/30 00:47:11;;;;;;;;;;;12.40;71.80;;;;;;5087494;28;20040;-73
2021/05/30 00:49:37;;;;;;;6.18;2.75;;;12.30;71.50;;;;;;5091044;28;19916;-72
2021/05/30 00:52:24;;;;;;;5.85;3.20;;;12.20;71.60;;;;;;5092626;28;20069;-72
2021/05/30 00:54:50;;;;;;;7.88;2.83;;;12.20;71.70;;;;;;5096048;28;20040;-72
2021/05/30 00:57:16;;;;;;;;;;;12.20;71.80;;;;;;5095281;28;20055;-73
2021/05/30 00:59:42;;;;;;;6.68;3.20;;;12.20;70.80;;;;;;5096052;28;19923;-73
2021/05/30 01:02:08;;;;;;;8.18;4.07;;;12.20;71.80;;;;;;5077974;28;20040;-74
2021/05/30 01:04:35;;;;;;;12.00;3.90;;;12.10;71.70;;;;;;5077921;28;20522;-73
2021/05/30 01:07:01;;;;;;;;;;;12.10;71.70;;;;;;5060638;28;20118;-72
2021/05/30 01:09:28;;;;;;;5.78;2.90;;;12.10;71.40;;;;;;5077407;28;19916;-72
2021/05/30 01:11:55;;;;;;;6.45;3.53;;;12.00;71.40;;;;;;5077811;28;20040;-73
2021/05/30 01:14:21;;;;;;;6.03;3.30;;;12.00;71.40;;;;;;5076996;28;20090;-73
2021/05/30 01:16:48;;;;;;;;;;;11.90;71.60;;;;;;5078214;28;20127;-73
2021/05/30 01:19:16;;;;;;;5.20;2.92;;;11.90;71.20;;;;;;5095028;28;19926;-72
2021/05/30 01:22:00;;;;;;;5.78;2.78;;;11.80;71.30;;;;;;5095559;28;20036;-72
2021/05/30 01:24:27;;;;;;;10.52;2.80;;;11.80;71.70;;;;;;5077472;28;20036;-73
2021/05/30 01:26:53;;;;;;;7.07;3.05;;;11.70;71.00;;;;;;5076609;28;20047;-73
2021/05/30 01:29:19;;;;;;;5.57;2.63;;;11.80;71.80;;;;;;5076698;28;20048;-72
2021/05/30 01:31:46;;;;;;;7.28;3.00;;;11.70;71.20;;;;;;5095665;28;20431;-73
2021/05/30 01:34:12;;;;;;;18.27;4.25;;;11.70;71.80;;;;;;5095356;28;20090;-73
2021/05/30 01:36:38;;;;;;;24.02;3.97;;;11.70;71.80;;;;;;5095508;28;20050;-72
2021/05/30 01:39:05;;;;;;;;;;;11.70;71.80;;;;;;5095816;28;20075;-72
2021/05/30 01:41:31;;;;;;;5.80;2.60;;;11.60;71.20;;;;;;5077362;28;19923;-72
2021/05/30 01:43:57;;;;;;;;;;;11.50;71.40;;;;;;5077821;28;20040;-72
2021/05/30 01:46:23;;;;;;;6.32;2.42;;;11.50;71.30;;;;;;5095439;28;19962;-72
2021/05/30 01:48:50;;;;;;;7.53;2.70;;;11.40;71.40;;;;;;5095106;28;20118;-73
2021/05/30 01:51:16;;;;;;;;;;;11.50;71.60;;;;;;5095518;28;20492;-72
2021/05/30 01:53:50;;;;;;;8.40;4.13;;;11.40;70.60;;;;;;5076981;28;19962;-73
2021/05/30 01:59:04;;;;;;;10.55;4.78;;;11.30;71.00;;;;;;5094959;28;20042;-73
2021/05/30 02:01:32;;;;;;;9.27;3.83;;;11.30;71.40;;;;;;5077039;28;20044;-72
2021/05/30 02:04:02;;;;;;;8.38;3.30;;;11.30;71.50;;;;;;5059737;28;20432;-73
2021/05/30 02:06:30;;;;;;;8.73;3.60;;;11.30;71.40;;;;;;5076918;28;20059;-73
2021/05/30 02:08:58;;;;;;;10.27;4.82;;;11.20;71.20;;;;;;5094556;28;20048;-73
2021/05/30 02:11:26;;;;;;;8.95;3.75;;;11.20;71.20;;;;;;5060027;28;20040;-71
2021/05/30 02:13:52;;;;;;;9.75;3.17;;;11.20;71.40;;;;;;5076517;28;20512;-72
2021/05/30 02:16:19;;;;;;;6.32;3.08;;;11.20;71.50;;;;;;5076615;28;20058;-72
2021/05/30 02:18:45;;;;;;;;;;;11.20;71.50;;;;;;5076979;28;20044;-73
2021/05/30 02:21:11;;;;;;;6.10;2.88;;;11.20;70.70;;;;;;5094705;28;20276;-73
2021/05/30 02:23:37;;;;;;;;;;;11.10;71.30;;;;;;5076959;28;20064;-72
2021/05/30 02:26:05;;;;;;;9.27;3.10;;;11.10;70.60;;;;;;5094346;28;19999;-73
2021/05/30 02:28:31;;;;;;;7.47;3.40;;;11.00;71.30;;;;;;5076160;28;20048;-73
2021/05/30 02:30:58;;;;;;;11.65;2.72;;;11.00;70.80;;;;;;5059652;28;20051;-72
2021/05/30 02:33:24;;;;;;;7.28;3.35;;;11.00;70.90;;;;;;5094199;28;20036;-73
2021/05/30 02:41:02;;;;;;;11.70;2.80;;;11.00;71.50;;;;;;5094385;28;20048;-72
2021/05/30 02:43:28;;;;;;;5.70;2.58;;;10.90;71.50;;;;;;5076029;28;20123;-73
2021/05/30 02:45:54;;;;;;;8.27;2.80;;;10.90;71.50;;;;;;5076030;28;20075;-72
2021/05/30 02:48:21;;;;;;;7.13;3.28;;;11.00;72.90;;;;;;5075688;28;20050;-72
2021/05/30 02:50:58;;;;;;;4.97;2.35;;;11.00;73.20;;;;;;5075694;28;20040;-73
2021/05/30 02:53:43;;;;;;;6.53;2.10;;;11.00;73.00;;;;;;5077527;28;20080;-73
2021/05/30 02:56:09;;;;;;;5.78;1.92;;;11.10;72.20;;;;;;5059129;28;20040;-72
2021/05/30 02:58:36;;;;;;;;;;;11.00;71.40;;;;;;5076196;28;20110;-73
2021/05/30 03:01:02;;;;;;;7.57;2.78;;;10.90;70.40;;;;;;5093911;28;19919;-73
2021/05/30 03:03:28;;;;;;;;;;;10.90;70.70;;;;;;5076114;28;20046;-73
2021/05/30 03:05:54;;;;;;;7.28;2.28;;;10.90;70.50;;;;;;5075451;28;20376;-72
2021/05/30 03:08:20;;;;;;;;;;;10.80;69.40;;;;;;5094078;28;20393;-72
2021/05/30 03:10:47;;;;;;;5.53;2.08;;;10.70;70.00;;;;;;5075359;28;19982;-72
2021/05/30 03:13:13;;;;;;;11.25;2.33;;;10.70;70.00;;;;;;5093453;28;20076;-72
2021/05/30 03:15:40;;;;;;;5.72;2.25;;;10.60;70.00;;;;;;5092701;28;20130;-72
2021/05/30 03:18:07;;;;;;;10.15;2.25;;;10.60;70.00;;;;;;5058574;28;20389;-73
2021/05/30 03:20:34;;;;;;;4.75;1.80;;;10.50;69.40;;;;;;5075265;28;20392;-72
2021/05/30 03:23:00;;;;;;;9.43;1.70;;;10.50;69.90;;;;;;5075231;28;20044;-73
2021/05/30 03:25:26;;;;;;;4.93;2.22;;;10.50;69.90;;;;;;5093323;28;20044;-72
2021/05/30 03:27:53;;;;;;;12.55;1.95;;;10.40;69.10;;;;;;5075090;28;20052;-73
2021/05/30 03:30:19;;;;;;;7.05;2.00;;;10.30;69.80;;;;;;5075113;28;20040;-73
2021/05/30 03:32:45;;;;;;;4.28;2.00;;;10.20;69.00;;;;;;5093267;28;20044;-73
2021/05/30 03:35:12;;;;;;;;;;;10.20;69.90;;;;;;5058870;28;20090;-72
2021/05/30 03:37:38;;;;;;;4.07;1.83;;;10.20;69.00;;;;;;5093179;28;20015;-73
2021/05/30 03:40:26;;;;;;;4.80;2.03;;;10.20;69.90;;;;;;5074946;28;20036;-72
2021/05/30 03:42:53;;;;;;;4.47;2.00;;;10.20;69.80;;;;;;5077973;28;20131;-73
2021/05/30 03:45:20;;;;;;;4.93;2.25;;;10.20;69.90;;;;;;5092889;28;20044;-74
2021/05/30 03:47:47;;;;;;;4.80;2.38;;;10.20;70.00;;;;;;5092907;28;20074;-73
2021/05/30 03:50:14;;;;;;;50.60;2.97;;;10.10;69.90;;;;;;5092779;28;20042;-72
2021/05/30 03:52:41;;;;;;;5.60;2.75;;;10.10;70.40;;;;;;5057957;28;20130;-72
2021/05/30 03:55:09;;;;;;;5.85;2.30;;;10.10;70.50;;;;;;5058032;28;20039;-72
2021/05/30 03:57:36;;;;;;;5.32;2.33;;;10.10;70.40;;;;;;5074949;28;20442;-74
2021/05/30 04:00:23;;;;;;;4.20;2.10;;;10.10;69.90;;;;;;5092719;28;20092;-73
2021/05/30 04:02:49;;;;;;;6.93;2.60;;;10.20;70.60;;;;;;5074883;28;20542;-73
2021/05/30 04:05:16;;;;;;;4.90;2.15;;;10.20;70.40;;;;;;5074690;28;20032;-72
2021/05/30 04:07:44;;;;;;;5.93;2.17;;;10.30;70.60;;;;;;5092790;28;20040;-72
2021/05/30 04:10:11;;;;;;;4.68;2.30;;;10.30;70.10;;;;;;5058267;28;20064;-73
2021/05/30 04:12:40;;;;;;;6.20;2.17;;;10.30;70.40;;;;;;5057908;28;20518;-72
2021/05/30 04:15:25;;;;;;;6.90;2.25;;;10.40;70.10;;;;;;5074486;28;20075;-72
2021/05/30 04:17:52;;;;;;;3.90;1.80;;;10.40;70.00;;;;;;5074588;28;20411;-73
2021/05/30 04:20:20;;;;;;;6.95;2.40;;;10.50;70.00;;;;;;5057794;28;20079;-73
2021/05/30 04:22:47;;;;;;;4.70;1.90;;;10.50;69.70;;;;;;5074884;28;20068;-73
2021/05/30 04:25:15;;;;;;;5.35;1.90;;;10.50;69.60;;;;;;5074917;28;20044;-72
2021/05/30 04:27:41;;;;;;;5.97;2.35;;;10.60;69.90;;;;;;5061763;28;20048;-73
2021/05/30 04:30:11;;;;;;;6.88;2.22;;;10.60;69.50;;;;;;5078454;28;20082;-72
2021/05/30 04:32:37;;;;;;;4.30;2.20;;;10.60;69.90;;;;;;5061798;28;20097;-73
2021/05/30 04:35:05;;;;;;;4.20;1.77;;;10.60;69.50;;;;;;5078232;28;20040;-73
2021/05/30 04:37:31;;;;;;;4.18;1.95;;;10.60;70.00;;;;;;5078394;28;20078;-72
2021/05/30 04:39:58;;;;;;;;;;;10.70;70.10;;;;;;5078916;28;20042;-73
2021/05/30 04:42:24;;;;;;;4.68;1.73;;;10.80;69.10;;;;;;5078369;28;19920;-73
2021/05/30 04:44:50;;;;;;;10.38;2.30;;;10.80;69.70;;;;;;5096652;28;20507;-72
2021/05/30 04:47:16;;;;;;;;;;;10.80;69.90;;;;;;5078760;28;20044;-71
2021/05/30 04:49:42;;;;;;;3.78;1.70;;;10.80;69.30;;;;;;5095069;28;19938;-72
2021/05/30 04:52:10;;;;;;;;;;;10.80;70.20;;;;;;5096665;28;20040;-73
2021/05/30 04:54:36;;;;;;;13.30;2.13;;;10.80;70.00;;;;;;5096207;28;19919;-72
2021/05/30 04:57:23;;;;;;;;;;;10.90;70.50;;;;;;5062020;28;20040;-73
2021/05/30 04:59:49;;;;;;;9.52;2.85;;;10.90;70.30;;;;;;5080915;28;19943;-73
2021/05/30 05:02:15;;;;;;;;;;;11.00;70.80;;;;;;5078728;28;20059;-73
2021/05/30 05:04:41;;;;;;;11.73;2.15;;;11.10;69.70;;;;;;5077887;28;20003;-74
2021/05/30 05:07:08;;;;;;;62.55;4.13;;;11.30;70.30;;;;;;5078185;28;20036;-72
2021/05/30 05:09:34;;;;;;;;;;;11.40;70.00;;;;;;5078256;28;20047;-73
2021/05/30 05:12:00;;;;;;;46.90;2.95;;;11.60;69.00;;;;;;5096276;28;20011;-72
2021/05/30 05:14:26;;;;;;;97.03;4.43;;;11.70;69.50;;;;;;5077618;28;20048;-73
2021/05/30 05:16:53;;;;;;;89.32;4.25;;;11.80;69.40;;;;;;5096176;28;20090;-72
2021/05/30 05:19:19;;;;;;;86.68;4.00;;;11.90;69.60;;;;;;5095551;28;20063;-74
2021/05/30 05:21:45;;;;;;;59.15;16.65;;;12.00;69.40;;;;;;5077532;28;20040;-73
2021/05/30 05:24:11;;;;;;;59.65;10.50;;;12.10;69.60;;;;;;5095582;28;20527;-72
2021/05/30 05:26:37;;;;;;;18.48;7.10;;;12.20;69.50;;;;;;5077694;28;20036;-72
2021/05/30 05:29:04;;;;;;;62.95;11.23;;;12.40;69.30;;;;;;5077429;28;20044;-72
2021/05/30 05:31:30;;;;;;;;;;;12.50;68.50;;;;;;5078164;28;20055;-71
2021/05/30 05:33:56;;;;;;;43.13;12.23;;;12.60;68.10;;;;;;5095432;28;20338;-73
2021/05/30 05:36:22;;;;;;;;;;;12.70;68.70;;;;;;5077927;28;20139;-72
2021/05/30 05:38:49;;;;;;;46.63;5.43;;;12.80;68.60;;;;;;5076548;28;19916;-72
2021/05/30 05:41:15;;;;;;;22.73;5.25;;;12.90;68.20;;;;;;5077259;28;20123;-72
2021/05/30 05:43:41;;;;;;;;;;;13.00;68.40;;;;;;5095836;28;20523;-73
2021/05/30 05:46:07;;;;;;;14.93;3.90;;;13.10;67.80;;;;;;5060454;28;19920;-73
2021/05/30 05:48:34;;;;;;;;;;;13.20;68.30;;;;;;5060732;28;20071;-72
2021/05/30 05:51:01;;;;;;;9.83;3.93;;;13.30;67.50;;;;;;5060186;28;19923;-73
2021/05/30 05:53:27;;;;;;;15.95;3.72;;;13.50;68.00;;;;;;5077123;28;20064;-71
2021/05/30 05:55:53;;;;;;;30.30;4.57;;;13.50;67.50;;;;;;5077126;28;20055;-71
2021/05/30 05:58:20;;;;;;;;;;;13.60;68.20;;;;;;5095444;28;20040;-73
2021/05/30 06:00:46;;;;;;;26.75;2.83;;;13.70;68.00;;;;;;5076922;28;19989;-72
2021/05/30 06:03:13;;;;;;;28.70;2.72;;;13.90;67.90;;;;;;5059936;28;20036;-72
2021/05/30 06:05:39;;;;;;;;;;;14.00;67.90;;;;;;5060555;28;20431;-73
2021/05/30 06:08:06;;;;;;;20.23;3.30;;;14.10;67.00;;;;;;5076590;28;20303;-73
2021/05/30 06:10:33;;;;;;;21.02;2.90;;;14.30;67.20;;;;;;5094690;28;20361;-72
2021/05/30 06:13:03;;;;;;;12.23;2.30;;;14.30;67.30;;;;;;5076845;28;20046;-72
2021/05/30 06:15:30;;;;;;;6.63;2.60;;;14.40;67.30;;;;;;5076689;28;20052;-72
2021/05/30 06:17:59;;;;;;;7.55;2.55;;;14.60;67.10;;;;;;5059757;28;20063;-72
2021/05/30 06:20:26;;;;;;;17.40;3.03;;;14.70;67.00;;;;;;5060083;28;20123;-72
2021/05/30 06:22:54;;;;;;;16.65;2.97;;;14.80;66.40;;;;;;5076526;28;20036;-72
2021/05/30 06:25:21;;;;;;;22.90;3.17;;;14.90;66.40;;;;;;5094333;28;20047;-72
2021/05/30 06:27:48;;;;;;;6.32;2.75;;;15.00;66.10;;;;;;5094310;28;20040;-73
2021/05/30 06:30:15;;;;;;;18.50;3.38;;;15.20;66.20;;;;;;5094299;28;20417;-72
2021/05/30 06:32:41;;;;;;;11.25;3.33;;;15.30;65.60;;;;;;5094301;28;20047;-73
2021/05/30 06:35:08;;;;;;;;;;;15.50;65.70;;;;;;5059890;28;20381;-72
2021/05/30 06:37:34;;;;;;;10.43;3.20;;;15.80;65.40;;;;;;5076263;28;20394;-73
2021/05/30 06:40:00;;;;;;;;;;;15.90;64.80;;;;;;5076507;28;20071;-73
2021/05/30 06:42:46;;;;;;;6.25;3.67;;;15.90;64.20;;;;;;5076109;28;20295;-74
2021/05/30 06:45:13;;;;;;;7.60;3.95;;;16.00;64.30;;;;;;5075836;28;20042;-74
2021/05/30 06:47:59;;;;;;;10.10;5.53;;;16.20;64.10;;;;;;5093947;28;20098;-74
2021/05/30 06:50:26;;;;;;;12.02;4.63;;;16.40;63.80;;;;;;5075070;28;20032;-73
2021/05/30 06:52:53;;;;;;;8.48;3.75;;;16.50;63.00;;;;;;5075953;28;20056;-73
2021/05/30 06:55:38;;;;;;;7.63;4.10;;;16.60;63.10;;;;;;5075788;28;20135;-72
2021/05/30 07:00:49;;;;;;;7.68;3.75;;;16.80;62.20;;;;;;5093950;28;20047;-72
2021/05/30 07:06:00;;;;;;;7.03;4.00;;;17.00;62.10;;;;;;5093713;28;20106;-74
2021/05/30 07:08:27;;;;;;;8.85;3.90;;;17.10;61.70;;;;;;5093575;28;20094;-72
2021/05/30 07:13:57;;;;;;;6.85;4.03;;;17.30;60.80;;;;;;5078228;28;20036;-73
2021/05/30 07:16:23;;;;;;;7.28;3.90;;;17.30;60.70;;;;;;5075358;28;20036;-72
2021/05/30 07:21:34;;;;;;;6.68;3.55;;;17.50;61.20;;;;;;5078380;28;20042;-73
2021/05/30 07:27:05;;;;;;;8.45;3.70;;;17.30;61.30;;;;;;5078282;28;20094;-73
2021/05/30 07:29:31;;;;;;;6.68;3.90;;;17.40;61.10;;;;;;5058424;28;20488;-71
2021/05/30 07:31:57;;;;;;;;;;;17.50;61.00;;;;;;5093713;28;20453;-73
2021/05/30 07:34:23;;;;;;;5.65;3.03;;;17.60;60.70;;;;;;5093195;28;19923;-72
2021/05/30 07:37:08;;;;;;;;;;;17.50;59.70;;;;;;5075877;28;20075;-72
2021/05/30 07:39:34;;;;;;;5.68;3.40;;;17.50;59.70;;;;;;5093081;28;19916;-73
2021/05/30 07:42:00;;;;;;;7.10;3.08;;;17.40;61.20;;;;;;5093515;28;20044;-72
2021/05/30 07:44:26;;;;;;;;;;;17.40;61.50;;;;;;5075981;28;20528;-72
2021/05/30 07:46:55;;;;;;;6.63;2.75;;;17.50;61.10;;;;;;5093396;28;19916;-73
2021/05/30 07:49:21;;;;;;;6.28;2.90;;;17.40;61.00;;;;;;5092825;28;20048;-72
2021/05/30 07:51:47;;;;;;;6.43;3.28;;;17.30;60.90;;;;;;5074778;28;20048;-73
2021/05/30 07:54:14;;;;;;;5.28;2.88;;;17.40;61.40;;;;;;5074789;28;20044;-73
2021/05/30 07:56:40;;;;;;;5.93;2.88;;;17.40;60.40;;;;;;5093205;28;20101;-73
2021/05/30 07:59:08;;;;;;;7.63;3.05;;;17.40;60.40;;;;;;5074842;28;20054;-73
2021/05/30 08:01:35;;;;;;;6.72;2.78;;;17.50;59.80;;;;;;5092850;28;20040;-71
2021/05/30 08:04:02;;;;;;;5.35;2.55;;;17.50;59.00;;;;;;5092708;28;20378;-71
2021/05/30 08:06:31;;;;;;;4.95;2.47;;;17.40;58.00;;;;;;5075146;28;20093;-72
2021/05/30 08:12:02;;;;;;;5.03;2.65;;;17.50;59.10;;;;;;5077606;28;20094;-71
2021/05/30 08:14:29;;;;;;;5.47;2.80;;;17.60;58.00;;;;;;5092792;28;20083;-72
2021/05/30 08:16:56;;;;;;;7.82;2.78;;;17.80;57.50;;;;;;5074923;28;20054;-72
2021/05/30 08:19:23;;;;;;;5.82;2.72;;;17.80;57.80;;;;;;5074833;28;20056;-72
2021/05/30 08:21:49;;;;;;;6.15;2.85;;;17.90;57.60;;;;;;5074046;28;20032;-73
2021/05/30 08:24:16;;;;;;;4.90;2.42;;;18.00;57.00;;;;;;5062144;28;20489;-71
2021/05/30 08:26:43;;;;;;;7.43;2.55;;;18.20;56.70;;;;;;5069015;28;20044;-72
2021/05/30 08:29:09;;;;;;;5.47;2.17;;;18.30;55.70;;;;;;5053258;28;20037;-72
2021/05/30 08:31:35;;;;;;;;;;;18.30;54.00;;;;;;5058557;28;20123;-72
2021/05/30 08:34:01;;;;;;;5.57;2.30;;;18.30;55.10;;;;;;5093464;28;19919;-72
2021/05/30 08:36:28;;;;;;;;;;;18.40;54.50;;;;;;5057665;28;20531;-71
2021/05/30 08:38:54;;;;;;;6.50;2.30;;;18.50;54.70;;;;;;5057950;28;20015;-72
2021/05/30 08:41:39;;;;;;;6.40;2.78;;;18.60;53.80;;;;;;5071831;28;21581;-72
2021/05/30 08:44:07;;;;;;;9.05;3.13;;;18.70;54.10;;;;;;5069160;28;20390;-72
2021/05/30 08:46:33;;;;;;;4.15;2.00;;;18.90;54.80;;;;;;5092765;28;20040;-72
2021/05/30 08:49:19;;;;;;;5.78;2.28;;;19.00;54.60;;;;;;5047843;28;20135;-71
2021/05/30 08:51:45;;;;;;;5.65;2.72;;;19.10;54.40;;;;;;5091256;28;20036;-71
2021/05/30 08:54:15;;;;;;;5.72;2.20;;;19.30;54.10;;;;;;5074066;28;20119;-71
2021/05/30 08:56:42;;;;;;;7.22;2.17;;;19.40;52.30;;;;;;5092406;28;20066;-73
2021/05/30 08:59:27;;;;;;;4.97;2.38;;;19.30;52.40;;;;;;5071412;28;20492;-71
2021/05/30 09:02:13;;;;;;;4.90;2.90;;;19.60;53.30;;;;;;5091534;28;20361;-72
2021/05/30 09:04:55;;;;;;;5.43;2.92;;;20.00;51.80;;;;;;5057628;28;20047;-72
2021/05/30 09:07:55;;;;;;;5.40;2.78;;;20.50;50.40;;;;;;5092122;28;20040;-72
2021/05/30 09:10:27;;;;;;;4.75;2.28;;;21.30;49.80;;;;;;5053516;28;20067;-71
2021/05/30 09:13:16;;;;;;;4.80;2.20;;;22.00;47.20;;;;;;5075024;28;20040;-72
2021/05/30 09:21:14;;;;;;;4.20;2.05;;;24.80;43.10;;;;;;5080565;28;19923;-71
2021/05/30 09:23:44;;;;;;;7.38;2.33;;;25.50;39.30;;;;;;5077547;28;20040;-72
2021/05/30 09:26:47;;;;;;;6.13;2.65;;;26.10;37.40;;;;;;5077629;28;20047;-72
2021/05/30 09:29:32;;;;;;;4.60;1.77;;;26.80;37.60;;;;;;5060576;28;20131;-72
2021/05/30 09:31:59;;;;;;;4.30;1.77;;;27.50;35.30;;;;;;5095984;28;20085;-71
2021/05/30 09:34:46;;;;;;;4.38;1.88;;;27.90;32.70;;;;;;5077484;28;20050;-72
2021/05/30 09:37:12;;;;;;;5.50;2.50;;;28.50;32.30;;;;;;5095919;28;20064;-72
2021/05/30 09:39:57;;;;;;;5.20;2.25;;;29.40;31.80;;;;;;5095609;28;20044;-72
2021/05/30 09:42:41;;;;;;;4.30;2.00;;;30.20;31.70;;;;;;5077252;28;20047;-71
2021/05/30 09:45:29;;;;;;;4.00;1.92;;;30.90;29.30;;;;;;5095041;28;20040;-72
2021/05/30 09:48:15;;;;;;;5.15;1.95;;;31.60;29.40;;;;;;5095112;28;20127;-71
2021/05/30 09:50:42;;;;;;;5.00;2.25;;;32.50;28.60;;;;;;5060435;28;20040;-73
2021/05/30 09:53:08;;;;;;;4.93;1.73;;;33.40;27.10;;;;;;5060139;28;20048;-72
2021/05/30 09:55:35;;;;;;;3.08;1.42;;;34.10;25.40;;;;;;5095145;28;20036;-72
2021/05/30 10:01:05;;;;;;;3.60;1.75;;;35.60;23.70;;;;;;5095253;28;20043;-72
2021/05/30 10:03:52;;;;;;;5.07;2.00;;;36.10;21.90;;;;;;5076737;28;20341;-73
2021/05/30 10:06:19;;;;;;;4.80;1.83;;;36.80;21.10;;;;;;5094633;28;20036;-72
2021/05/30 10:08:47;;;;;;;4.07;1.90;;;37.50;20.20;;;;;;5075975;28;20047;-72
2021/05/30 10:11:33;;;;;;;4.50;1.58;;;36.80;20.10;;;;;;5076535;28;20036;-72
2021/05/30 10:14:00;;;;;;;;;;;35.90;20.30;;;;;;5094729;28;20048;-71
2021/05/30 10:16:27;;;;;;;3.35;1.80;;;36.30;21.60;;;;;;5094099;28;19920;-72
2021/05/30 10:18:54;;;;;;;3.67;1.92;;;35.30;21.10;;;;;;5075630;28;20047;-73
2021/05/30 10:21:39;;;;;;;3.40;1.75;;;35.50;19.90;;;;;;5071990;28;20488;-72
2021/05/30 10:24:10;;;;;;;8.23;1.90;;;34.70;20.10;;;;;;5094644;28;20496;-73
2021/05/30 10:26:37;;;;;;;3.63;1.67;;;34.30;21.30;;;;;;5076651;28;20044;-72
2021/05/30 10:29:22;;;;;;;3.80;1.83;;;35.30;20.30;;;;;;5093213;28;20036;-71
2021/05/30 10:32:25;;;;;;;4.07;1.90;;;36.10;20.10;;;;;;5093182;28;20039;-73
2021/05/30 10:35:11;;;;;;;3.78;1.95;;;37.10;20.00;;;;;;5075615;28;20086;-72
2021/05/30 10:37:56;;;;;;;4.60;2.15;;;36.60;20.00;;;;;;5073671;28;20060;-71
2021/05/30 10:40:23;;;;;;;4.10;2.00;;;37.10;19.30;;;;;;5084429;28;20097;-71
2021/05/30 10:43:08;;;;;;;4.25;2.33;;;36.90;18.40;;;;;;5094140;28;20058;-73
2021/05/30 10:46:12;;;;;;;5.38;2.17;;;37.50;19.00;;;;;;5093925;28;20044;-72
2021/05/30 10:48:41;;;;;;;4.03;2.10;;;38.50;18.40;;;;;;5093392;28;20492;-73
2021/05/30 10:51:22;;;;;;;7.88;2.35;;;39.10;17.40;;;;;;5075320;28;20048;-72
2021/05/30 10:53:51;;;;;;;3.65;2.03;;;37.70;17.60;;;;;;5050839;28;20060;-72
2021/05/30 10:56:39;;;;;;;9.85;2.42;;;36.10;18.60;;;;;;5051279;28;20064;-72
2021/05/30 10:59:26;;;;;;;3.58;1.60;;;34.80;19.90;;;;;;5051282;28;20045;-72
2021/05/30 11:02:12;;;;;;;7.43;2.70;;;33.70;21.00;;;;;;5050995;28;20037;-72
2021/05/30 11:04:39;;;;;;;8.80;2.92;;;32.90;21.50;;;;;;5033549;28;20052;-71
2021/05/30 11:07:24;;;;;;;3.88;1.90;;;34.40;20.70;;;;;;5033235;28;20032;-71
2021/05/30 11:10:09;;;;;;;5.40;2.40;;;34.80;20.50;;;;;;5045466;28;20060;-71
2021/05/30 11:12:53;;;;;;;6.40;2.33;;;35.20;20.00;;;;;;5050569;28;20045;-71
2021/05/30 11:16:05;;;;;;;4.53;2.08;;;36.40;19.30;;;;;;5032214;28;20072;-72
2021/05/30 11:18:32;;;;;;;4.20;1.83;;;37.80;18.70;;;;;;5043294;28;20079;-71
2021/05/30 11:20:58;;;;;;;5.38;2.15;;;39.00;17.80;;;;;;5034005;28;20051;-73
2021/05/30 11:26:11;;;;;;;3.33;1.70;;;40.10;16.70;;;;;;5061747;28;20042;-72
2021/05/30 11:28:39;;;;;;;3.10;1.70;;;38.50;16.80;;;;;;5093194;28;20036;-71
2021/05/30 11:34:28;;;;;;;5.13;1.98;;;35.20;19.20;;;;;;5074811;28;20120;-72
2021/05/30 11:37:22;;;;;;;6.60;3.67;;;33.70;19.80;;;;;;5074916;28;20442;-71
2021/05/30 11:39:49;;;;;;;6.28;3.88;;;32.20;21.20;;;;;;5058238;28;20078;-72
2021/05/30 11:42:24;;;;;;;7.30;2.50;;;31.20;22.30;;;;;;5112688;28;20043;-71
2021/05/30 11:44:51;;;;;;;5.90;2.00;;;30.20;22.80;;;;;;5095183;28;20044;-71
2021/05/30 11:47:19;;;;;;;3.40;1.73;;;29.50;23.60;;;;;;5113817;28;20040;-72
2021/05/30 11:52:30;;;;;;;2.78;1.35;;;33.00;21.60;;;;;;5092869;28;20461;-72
2021/05/30 11:54:56;;;;;;;3.33;1.50;;;35.20;20.10;;;;;;5092874;28;20036;-71
2021/05/30 11:57:25;;;;;;;2.90;1.48;;;36.30;18.80;;;;;;5104933;28;20086;-72
2021/05/30 12:00:10;;;;;;;3.47;1.85;;;36.10;18.70;;;;;;5063325;28;20441;-72
2021/05/30 12:02:55;;;;;;;3.50;1.98;;;35.10;18.70;;;;;;5092493;28;20056;-71
2021/05/30 12:05:21;;;;;;;6.78;2.47;;;33.80;19.40;;;;;;5092756;28;20428;-71
2021/05/30 12:07:49;;;;;;;6.10;3.10;;;32.70;20.40;;;;;;5092652;28;20058;-71
2021/05/30 12:10:16;;;;;;;4.55;2.25;;;31.70;20.80;;;;;;5074834;28;20080;-70
2021/05/30 12:13:01;;;;;;;4.88;1.70;;;30.60;22.00;;;;;;5074680;28;20386;-70
2021/05/30 12:15:46;;;;;;;7.25;2.22;;;29.50;23.50;;;;;;5092724;28;20044;-71
2021/05/30 12:18:15;;;;;;;4.13;1.92;;;28.30;24.70;;;;;;5074627;28;20086;-71
2021/05/30 12:20:43;;;;;;;6.43;2.53;;;27.00;26.00;;;;;;5074464;28;20036;-71
2021/05/30 12:23:19;;;;;;;7.65;2.22;;;26.10;28.20;;;;;;5074890;28;20120;-71
2021/05/30 12:26:04;;;;;;;5.45;2.17;;;25.30;29.90;;;;;;5074715;28;20040;-72
2021/05/30 12:31:34;;;;;;;4.50;1.70;;;23.90;33.40;;;;;;5092886;28;20051;-71
2021/05/30 12:34:21;;;;;;;3.85;1.95;;;23.40;34.10;;;;;;5074490;28;20409;-71
2021/05/30 12:36:53;;;;;;;4.93;1.70;;;23.00;35.60;;;;;;5092917;28;20132;-71
2021/05/30 12:42:24;;;;;;;5.95;2.00;;;22.20;37.50;;;;;;5077412;28;20035;-72
2021/05/30 12:44:52;;;;;;;4.90;2.40;;;22.00;38.00;;;;;;5073633;28;20036;-71
2021/05/30 12:47:22;;;;;;;8.40;2.60;;;21.80;39.00;;;;;;5073914;28;20032;-71
2021/05/30 12:50:09;;;;;;;9.25;2.78;;;21.90;39.90;;;;;;5077681;28;20059;-71
2021/05/30 12:52:54;;;;;;;4.75;2.42;;;21.90;40.00;;;;;;5081148;28;20060;-72
2021/05/30 12:55:40;;;;;;;5.53;2.30;;;22.10;40.20;;;;;;5041428;28;20198;-71
2021/05/30 12:58:25;;;;;;;5.03;1.85;;;22.40;39.50;;;;;;5058130;28;20115;-72
2021/05/30 13:00:51;;;;;;;6.35;3.38;;;22.70;39.30;;;;;;5058090;28;20041;-72
2021/05/30 13:03:25;;;;;;;6.20;2.28;;;22.90;39.60;;;;;;5075843;28;20520;-72
2021/05/30 13:06:11;;;;;;;5.50;2.63;;;23.00;39.40;;;;;;5058037;28;20041;-71
2021/05/30 13:08:37;;;;;;;10.57;5.82;;;23.10;39.40;;;;;;5073657;28;20633;-71
2021/05/30 13:11:06;;;;;;;12.82;6.32;;;23.00;40.10;;;;;;5075489;28;20445;-73
2021/05/30 13:13:51;;;;;;;12.20;4.72;;;22.90;40.50;;;;;;5057681;28;20047;-73
2021/05/30 13:16:29;;;;;;;10.77;3.33;;;23.00;40.20;;;;;;5057844;28;20044;-73
2021/05/30 13:18:56;;;;;;;5.53;2.30;;;23.00;39.80;;;;;;5057787;28;20119;-72
2021/05/30 13:21:41;;;;;;;6.55;1.63;;;23.10;40.10;;;;;;5041040;28;20549;-73
2021/05/30 13:24:45;;;;;;;5.10;2.25;;;23.00;39.70;;;;;;5075370;28;20532;-72
2021/05/30 13:27:41;;;;;;;8.00;2.03;;;23.10;39.20;;;;;;5075711;28;20108;-73
2021/05/30 13:30:26;;;;;;;4.95;2.33;;;23.00;38.80;;;;;;5075141;28;20079;-72
2021/05/30 13:32:52;;;;;;;10.90;3.03;;;22.70;39.50;;;;;;5057416;28;20049;-72
2021/05/30 13:35:19;;;;;;;5.63;2.25;;;22.50;40.10;;;;;;5057332;28;20060;-72
2021/05/30 13:37:45;;;;;;;8.18;2.55;;;22.40;39.70;;;;;;5075143;28;20067;-72
2021/05/30 13:40:12;;;;;;;5.25;2.42;;;22.30;40.00;;;;;;5057107;28;20420;-72
2021/05/30 13:42:38;;;;;;;7.18;3.10;;;22.00;40.50;;;;;;5075276;28;20048;-72
2021/05/30 13:45:06;;;;;;;9.95;5.63;;;21.90;41.60;;;;;;5040473;28;20519;-72
2021/05/30 13:47:32;;;;;;;4.32;1.92;;;21.70;41.80;;;;;;5040453;28;20072;-72
2021/05/30 13:49:58;;;;;;;2.47;1.25;;;21.50;42.10;;;;;;5056950;28;20037;-73
2021/05/30 13:52:24;;;;;;;4.68;2.10;;;21.40;42.10;;;;;;5086843;28;20052;-72
2021/05/30 13:54:50;;;;;;;;;;;21.10;42.70;;;;;;5095586;28;20032;-73
2021/05/30 13:57:17;;;;;;;9.25;5.75;;;21.00;41.50;;;;;;5060544;28;20053;-72
2021/05/30 13:59:44;;;;;;;6.10;2.97;;;20.90;43.60;;;;;;5094635;28;20123;-74
2021/05/30 14:02:11;;;;;;;4.20;1.75;;;20.80;44.10;;;;;;5077113;28;20102;-72